createdAt,value
2022-12-20T00:04:58.182Z,19.40
2022-12-20T00:10:01.546Z,16.93
2022-12-20T00:15:07.570Z,17.57
2022-12-20T00:20:11.885Z,18.17
2022-12-20T00:25:15.281Z,20.83
2022-12-20T00:30:20.714Z,19.77
2022-12-20T00:35:24.102Z,19.67
2022-12-20T00:40:28.062Z,23.83
2022-12-20T00:45:32.739Z,20.43
2022-12-20T00:50:36.676Z,19.97
2022-12-20T00:55:43.279Z,24.03
2022-12-20T01:00:54.103Z,22.67
2022-12-20T01:06:01.954Z,17.77
2022-12-20T01:11:08.421Z,19.73
2022-12-20T01:16:15.292Z,20.87
2022-12-20T01:21:21.229Z,21.23
2022-12-20T01:26:27.307Z,20.23
2022-12-20T01:31:32.608Z,24.47
2022-12-20T01:36:38.166Z,19.70
2022-12-20T01:41:42.344Z,22.80
2022-12-20T01:46:49.008Z,23.17
2022-12-20T01:51:59.007Z,20.93
2022-12-20T01:57:07.536Z,22.53
2022-12-20T02:02:14.271Z,20.60
2022-12-20T02:07:22.982Z,23.77
2022-12-20T02:12:28.003Z,18.63
2022-12-20T02:17:46.000Z,19.73
2022-12-20T02:23:13.235Z,18.13
2022-12-20T02:28:45.215Z,21.17
2022-12-20T02:33:53.136Z,17.57
2022-12-20T02:38:56.558Z,18.20
2022-12-20T02:44:21.441Z,14.90
2022-12-20T02:49:31.476Z,15.30
2022-12-20T02:54:34.953Z,17.83
2022-12-20T02:59:44.556Z,19.37
2022-12-20T03:04:50.591Z,17.47
2022-12-20T03:09:53.910Z,16.70
2022-12-20T03:14:57.467Z,20.53
2022-12-20T03:20:02.346Z,18.63
2022-12-20T03:25:06.811Z,21.13
2022-12-20T03:30:10.958Z,18.10
2022-12-20T03:35:16.162Z,22.40
2022-12-20T03:40:19.598Z,19.37
2022-12-20T03:45:23.248Z,17.77
2022-12-20T03:50:28.618Z,16.87
2022-12-20T03:55:32.034Z,15.80
2022-12-20T04:00:36.775Z,22.43
2022-12-20T04:06:16.603Z,17.97
2022-12-20T04:11:20.719Z,19.00
2022-12-20T04:16:30.882Z,21.53
2022-12-20T04:21:37.178Z,19.90
2022-12-20T04:26:41.566Z,18.20
2022-12-20T04:31:45.485Z,20.10
2022-12-20T04:36:50.607Z,20.20
2022-12-20T04:42:03.237Z,18.33
2022-12-20T04:47:06.630Z,19.87
2022-12-20T04:52:28.944Z,18.37
2022-12-20T04:57:32.361Z,21.17
2022-12-20T05:02:37.341Z,17.83
2022-12-20T05:07:47.329Z,21.37
2022-12-20T05:12:51.093Z,20.83
2022-12-20T05:18:06.064Z,20.23
2022-12-20T05:23:39.887Z,19.97
2022-12-20T05:28:50.464Z,20.03
2022-12-20T05:33:54.287Z,22.50
2022-12-20T05:39:04.243Z,19.40
2022-12-20T05:44:09.718Z,22.97
2022-12-20T05:49:16.787Z,19.67
2022-12-20T05:54:22.365Z,21.17
2022-12-20T05:59:32.014Z,21.27
2022-12-20T06:04:35.644Z,21.67
2022-12-20T06:09:47.840Z,20.27
2022-12-20T06:14:54.109Z,23.40
2022-12-20T06:19:58.468Z,20.70
2022-12-20T06:25:03.290Z,23.60
2022-12-20T06:30:10.039Z,19.73
2022-12-20T06:35:31.670Z,21.27
2022-12-20T06:40:37.264Z,22.00
2022-12-20T06:45:42.245Z,24.47
2022-12-20T06:50:55.620Z,19.90
2022-12-20T06:56:01.964Z,19.03
2022-12-20T07:01:08.142Z,20.90
2022-12-20T07:06:11.447Z,20.07
2022-12-20T07:11:16.327Z,17.87
2022-12-20T07:16:19.705Z,26.53
2022-12-20T07:21:23.368Z,18.60
2022-12-20T07:26:28.269Z,18.30
2022-12-20T07:31:31.946Z,20.87
2022-12-20T07:36:36.006Z,21.93
2022-12-20T07:41:41.876Z,25.50
2022-12-20T07:46:52.047Z,25.20
2022-12-20T07:51:59.130Z,20.67
2022-12-20T07:57:08.470Z,22.27
2022-12-20T08:02:16.749Z,21.87
2022-12-20T08:07:20.336Z,23.27
2022-12-20T08:12:26.480Z,22.57
2022-12-20T08:17:29.863Z,23.37
2022-12-20T08:22:33.179Z,24.33
2022-12-20T08:27:37.970Z,19.27
2022-12-20T08:32:41.432Z,25.67
2022-12-20T08:37:44.794Z,26.03
2022-12-20T08:42:49.419Z,19.43
2022-12-20T08:47:52.737Z,22.03
2022-12-20T08:52:55.996Z,17.53
2022-12-20T08:58:00.705Z,18.90
2022-12-20T09:03:04.224Z,19.97
2022-12-20T09:08:07.804Z,16.77
2022-12-20T09:13:12.756Z,20.60
2022-12-20T09:18:16.106Z,20.77
2022-12-20T09:23:19.514Z,18.67
2022-12-20T09:28:24.537Z,17.87
2022-12-20T09:33:28.642Z,17.67
2022-12-20T09:38:33.109Z,18.33
2022-12-20T09:43:38.757Z,22.37
2022-12-20T09:48:43.310Z,19.50
2022-12-20T09:54:00.102Z,14.87
2022-12-20T09:59:06.954Z,19.27
2022-12-20T10:04:20.821Z,20.80
2022-12-20T10:09:41.795Z,14.03
2022-12-20T10:15:05.114Z,16.20
2022-12-20T10:20:29.300Z,12.73
2022-12-20T10:25:34.485Z,15.40
2022-12-20T10:30:39.209Z,15.47
2022-12-20T10:35:43.455Z,16.90
2022-12-20T10:46:16.796Z,17.27
2022-12-20T10:51:22.050Z,15.43
2022-12-20T10:56:28.762Z,13.07
2022-12-20T11:01:36.804Z,20.90
2022-12-20T11:06:46.563Z,20.53
2022-12-20T11:12:02.972Z,16.67
2022-12-20T11:17:21.225Z,18.20
2022-12-20T11:22:33.643Z,19.40
2022-12-20T11:27:47.091Z,17.00
2022-12-20T11:33:24.820Z,14.40
2022-12-20T11:38:41.197Z,17.90
2022-12-20T11:44:24.527Z,16.13
2022-12-20T11:49:52.384Z,18.27
2022-12-20T11:55:05.013Z,20.13
2022-12-20T12:00:14.088Z,18.40
2022-12-20T12:05:21.916Z,22.17
2022-12-20T12:10:32.230Z,17.63
2022-12-20T12:15:41.837Z,24.00
2022-12-20T12:20:53.384Z,24.43
2022-12-20T12:25:56.829Z,20.70
2022-12-20T12:31:06.069Z,25.30
2022-12-20T12:36:38.607Z,19.70
2022-12-20T12:42:10.499Z,20.80
2022-12-20T12:47:18.486Z,22.57
2022-12-20T12:52:46.413Z,18.13
2022-12-20T12:57:57.583Z,17.83
2022-12-20T13:03:07.317Z,19.07
2022-12-20T13:08:19.417Z,20.20
2022-12-20T13:13:24.634Z,20.40
2022-12-20T13:18:29.387Z,17.50
2022-12-20T13:23:34.359Z,16.53
2022-12-20T13:28:45.521Z,17.83
2022-12-20T13:33:49.814Z,17.57
2022-12-20T13:38:59.492Z,17.07
2022-12-20T13:44:11.295Z,16.37
2022-12-20T13:49:27.065Z,17.03
2022-12-20T13:54:31.893Z,14.87
2022-12-20T13:59:35.510Z,17.30
2022-12-20T14:04:43.014Z,17.17
2022-12-20T14:09:56.048Z,14.37
2022-12-20T14:14:59.667Z,13.80
2022-12-20T14:20:25.607Z,13.53
2022-12-20T14:25:38.484Z,15.97
2022-12-20T14:30:45.441Z,14.50
2022-12-20T14:35:51.232Z,21.07
2022-12-20T14:40:57.614Z,13.67
2022-12-20T14:46:20.419Z,19.30
2022-12-20T14:51:24.225Z,22.00
2022-12-20T14:56:32.205Z,15.57
2022-12-20T15:01:41.875Z,18.33
2022-12-20T15:06:48.230Z,17.13
2022-12-20T15:11:53.960Z,19.30
2022-12-20T15:16:58.463Z,16.70
2022-12-20T15:22:01.962Z,16.07
2022-12-20T15:27:11.589Z,16.67
2022-12-20T15:32:23.171Z,13.20
2022-12-20T15:37:26.547Z,15.33
2022-12-20T15:42:31.375Z,18.47
2022-12-20T15:47:34.713Z,16.03
2022-12-20T15:52:38.186Z,12.80
2022-12-20T15:57:43.069Z,17.03
2022-12-20T16:02:47.402Z,16.93
2022-12-20T16:07:50.837Z,14.40
2022-12-20T16:12:55.850Z,19.47
2022-12-20T16:18:03.281Z,16.50
2022-12-20T16:23:09.045Z,15.97
2022-12-20T16:28:13.816Z,14.10
2022-12-20T16:33:22.162Z,15.97
2022-12-20T16:38:25.630Z,15.07
2022-12-20T16:43:35.347Z,16.53
2022-12-20T16:48:42.361Z,13.40
2022-12-20T16:54:17.222Z,17.10
2022-12-20T16:59:19.989Z,15.57
2022-12-20T17:04:26.920Z,12.43
2022-12-20T17:09:30.416Z,14.00
2022-12-20T17:14:35.137Z,13.13
2022-12-20T17:19:39.413Z,14.87
2022-12-20T17:24:42.859Z,16.23
2022-12-20T17:29:47.600Z,19.37
2022-12-20T17:34:51.161Z,22.07
2022-12-20T17:39:54.618Z,17.47
2022-12-20T17:44:59.508Z,15.83
2022-12-20T17:50:02.830Z,16.80
2022-12-20T17:55:07.301Z,14.37
2022-12-20T18:00:19.494Z,16.40
2022-12-20T18:05:24.896Z,12.03
2022-12-20T18:10:28.441Z,15.20
2022-12-20T18:15:33.655Z,12.93
2022-12-20T18:20:37.199Z,14.73
2022-12-20T18:25:40.535Z,12.67
2022-12-20T18:30:45.339Z,12.07
2022-12-20T18:35:48.975Z,11.30
2022-12-20T18:40:52.765Z,12.63
2022-12-20T18:45:57.752Z,12.93
2022-12-20T18:51:05.657Z,13.37
2022-12-20T18:56:11.445Z,13.83
2022-12-20T19:01:19.277Z,13.50
2022-12-20T19:06:24.746Z,16.27
2022-12-20T19:11:29.246Z,12.30
2022-12-20T19:16:35.551Z,11.97
2022-12-20T19:21:41.742Z,13.50
2022-12-20T19:26:46.019Z,11.10
2022-12-20T19:31:52.358Z,13.17
2022-12-20T19:36:57.878Z,11.03
2022-12-20T19:42:23.751Z,11.87
2022-12-20T19:47:27.697Z,10.40
2022-12-20T19:52:31.740Z,11.67
2022-12-20T19:57:35.854Z,9.93
2022-12-20T20:02:40.728Z,11.07
2022-12-20T20:07:45.138Z,9.87
2022-12-20T20:12:48.899Z,10.23
2022-12-20T20:17:54.682Z,13.43
2022-12-20T20:22:58.368Z,10.03
2022-12-20T20:28:05.225Z,11.70
2022-12-20T20:33:12.320Z,9.97
2022-12-20T20:38:15.917Z,11.00
2022-12-20T20:43:21.339Z,9.63
2022-12-20T20:48:27.094Z,11.03
2022-12-20T20:53:34.016Z,10.00
2022-12-20T20:58:38.587Z,8.33
2022-12-20T21:03:43.336Z,9.97
2022-12-20T21:08:46.715Z,9.23
2022-12-20T21:13:50.390Z,7.93
2022-12-20T21:18:56.669Z,8.60
2022-12-20T21:23:59.964Z,9.27
2022-12-20T21:29:03.345Z,10.20
2022-12-20T21:34:08.074Z,10.63
2022-12-20T21:39:13.747Z,9.07
2022-12-20T21:44:17.264Z,9.37
2022-12-20T21:49:22.006Z,11.37
2022-12-20T21:54:25.386Z,10.87
2022-12-20T21:59:28.765Z,10.73
2022-12-20T22:04:35.310Z,8.33
2022-12-20T22:09:38.568Z,7.63
2022-12-20T22:14:41.923Z,10.27
2022-12-20T22:19:46.586Z,9.27
2022-12-20T22:24:50.259Z,7.07
2022-12-20T22:29:53.574Z,10.60
2022-12-20T22:34:58.325Z,8.23
2022-12-20T22:40:01.633Z,11.13
2022-12-20T22:45:05.582Z,11.47
2022-12-20T22:50:11.649Z,11.17
2022-12-20T22:55:15.058Z,8.17
2022-12-20T23:00:18.914Z,10.17
2022-12-20T23:05:23.597Z,12.70
2022-12-20T23:10:44.693Z,10.53
2022-12-20T23:15:48.659Z,12.10
2022-12-20T23:21:11.553Z,11.27
2022-12-20T23:26:17.418Z,9.73
2022-12-20T23:31:21.022Z,15.33
2022-12-20T23:36:25.993Z,10.33
2022-12-20T23:41:29.441Z,13.17
2022-12-20T23:46:34.286Z,10.97
2022-12-20T23:51:39.490Z,13.57
2022-12-20T23:56:42.794Z,12.83
